Wendel, West Virginia
Current Conditions -  °F | °C
As of 6:53 AM on Monday 29 Dec 2014 (Local Time) from KCKB Reporting Station
Haze Haze  
Wind Chill: 33°   Ceiling: 1200
Heat Index: 33°   Visibility: 6mi
Dew Point: 32°   Wind: 0mph
Humidity: 96%   Direction: NA
Pressure: 30.17"   Gusts: NA
Location:  39.2753°N, 80.1249°W
Report Text: KCKB 291153Z 00000KT 6SM BR BKN012 OVC030 01/00 A3017 RMK AO2 SLP219 70010 T00060000 10022 20006 53004
Loading
Personal Weather Stations






























Interactive Weather Map New forecast layout! Learn more

10-Day Weather Forecast

Advertisements
Track Severe Weather on mobile